createdAt,value
2019-04-20T00:00:49.173Z,14.13
2019-04-20T00:03:15.896Z,14.55
2019-04-20T00:05:46.163Z,12.63
2019-04-20T00:08:21.472Z,13.80
2019-04-20T00:10:58.296Z,13.03
2019-04-20T00:13:32.311Z,13.53
2019-04-20T00:15:51.360Z,13.60
2019-04-20T00:18:28.076Z,13.48
2019-04-20T00:21:00.404Z,12.75
2019-04-20T00:26:33.336Z,13.05
2019-04-20T00:29:07.524Z,13.18
2019-04-20T00:31:36.740Z,14.03
2019-04-20T00:34:05.286Z,13.50
2019-04-20T00:36:27.142Z,13.50
2019-04-20T00:39:01.324Z,12.78
2019-04-20T00:41:29.721Z,12.78
2019-04-20T00:44:06.936Z,13.58
2019-04-20T00:46:39.790Z,13.72
2019-04-20T00:49:20.765Z,12.47
2019-04-20T00:51:51.561Z,13.55
2019-04-20T00:54:07.344Z,13.93
2019-04-20T00:56:39.178Z,13.35
2019-04-20T00:59:26.030Z,13.05
2019-04-20T01:02:00.591Z,12.90
2019-04-20T01:04:33.566Z,12.65
2019-04-20T01:07:13.682Z,12.70
2019-04-20T01:09:51.991Z,13.78
2019-04-20T01:12:26.257Z,12.43
2019-04-20T01:15:00.315Z,12.98
2019-04-20T01:17:25.453Z,12.50
2019-04-20T01:19:55.433Z,12.23
2019-04-20T01:22:28.587Z,10.80
2019-04-20T01:25:08.717Z,11.57
2019-04-20T01:27:42.094Z,12.58
2019-04-20T01:30:14.752Z,11.93
2019-04-20T01:35:26.115Z,12.50
2019-04-20T01:37:57.426Z,13.10
2019-04-20T01:40:11.689Z,13.00
2019-04-20T01:42:42.853Z,13.30
2019-04-20T01:45:21.728Z,13.50
2019-04-20T01:47:50.828Z,13.60
2019-04-20T01:50:23.032Z,13.95
2019-04-20T01:53:04.180Z,14.05
2019-04-20T01:55:56.129Z,13.88
2019-04-20T01:58:30.224Z,14.78
2019-04-20T02:03:38.603Z,14.07
2019-04-20T02:06:09.930Z,15.20
2019-04-20T02:11:08.124Z,14.35
2019-04-20T02:13:46.720Z,15.25
2019-04-20T02:16:22.968Z,12.98
2019-04-20T02:19:08.031Z,14.30
2019-04-20T02:21:34.233Z,13.68
2019-04-20T02:23:54.722Z,12.90
2019-04-20T02:26:20.029Z,11.63
2019-04-20T02:34:33.960Z,10.25
2019-04-20T02:42:08.811Z,9.90
2019-04-20T02:44:42.576Z,10.13
2019-04-20T02:47:14.046Z,8.55
2019-04-20T02:49:47.460Z,9.33
2019-04-20T02:52:12.836Z,8.93
2019-04-20T02:54:48.711Z,8.98
2019-04-20T02:57:26.185Z,10.08
2019-04-20T03:00:03.172Z,10.95
2019-04-20T03:02:06.360Z,9.68
2019-04-20T03:04:32.658Z,11.25
2019-04-20T03:07:07.960Z,10.05
2019-04-20T03:09:48.472Z,8.80
2019-04-20T03:12:23.818Z,9.95
2019-04-20T03:14:42.325Z,9.53
2019-04-20T03:17:22.618Z,9.90
2019-04-20T03:19:46.402Z,9.93
2019-04-20T03:22:35.307Z,10.05
2019-04-20T03:25:03.836Z,9.08
2019-04-20T03:27:24.790Z,9.20
2019-04-20T03:30:03.728Z,9.18
2019-04-20T03:37:44.261Z,8.70
2019-04-20T03:40:10.300Z,9.00
2019-04-20T03:42:24.480Z,9.70
2019-04-20T03:45:01.810Z,9.80
2019-04-20T03:47:35.941Z,9.00
2019-04-20T03:50:28.373Z,8.18
2019-04-20T03:52:56.274Z,8.33
2019-04-20T03:55:44.508Z,8.93
2019-04-20T03:58:19.692Z,8.20
2019-04-20T04:03:56.058Z,7.60
2019-04-20T04:06:17.910Z,7.80
2019-04-20T04:08:56.021Z,7.58
2019-04-20T04:11:31.488Z,8.10
2019-04-20T04:13:45.903Z,7.30
2019-04-20T04:16:18.837Z,7.55
2019-04-20T04:18:58.428Z,7.85
2019-04-20T04:21:35.531Z,7.60
2019-04-20T04:24:05.599Z,9.33
2019-04-20T04:26:39.007Z,7.47
2019-04-20T04:29:19.161Z,7.20
2019-04-20T04:31:57.740Z,7.30
2019-04-20T04:34:20.948Z,8.05
2019-04-20T04:36:52.409Z,7.55
2019-04-20T04:39:27.750Z,8.38
2019-04-20T04:42:01.220Z,7.67
2019-04-20T04:44:19.316Z,8.75
2019-04-20T04:46:42.411Z,8.70
2019-04-20T04:49:18.323Z,7.60
2019-04-20T04:51:50.200Z,7.67
2019-04-20T04:54:21.976Z,8.55
2019-04-20T04:56:44.320Z,8.23
2019-04-20T04:59:14.934Z,7.95
2019-04-20T05:01:46.994Z,7.67
2019-04-20T05:04:40.121Z,8.60
2019-04-20T05:07:02.530Z,8.18
2019-04-20T05:09:23.666Z,8.25
2019-04-20T05:11:59.764Z,8.15
2019-04-20T05:14:38.758Z,8.05
2019-04-20T05:17:11.394Z,8.48
2019-04-20T05:19:47.870Z,8.70
2019-04-20T05:22:19.458Z,8.15
2019-04-20T05:25:01.148Z,8.00
2019-04-20T05:27:30.147Z,7.97
2019-04-20T05:29:42.927Z,7.20
2019-04-20T05:32:16.980Z,8.55
2019-04-20T05:37:43.199Z,8.90
2019-04-20T05:40:10.666Z,8.20
2019-04-20T05:42:44.229Z,7.92
2019-04-20T05:47:43.138Z,7.42
2019-04-20T05:50:08.294Z,9.25
2019-04-20T05:53:07.494Z,7.83
2019-04-20T05:55:20.858Z,8.78
2019-04-20T05:57:50.460Z,8.28
2019-04-20T06:00:27.856Z,7.27
2019-04-20T06:02:54.013Z,7.65
2019-04-20T06:05:29.061Z,7.47
2019-04-20T06:07:59.120Z,6.15
2019-04-20T06:10:32.040Z,5.65
2019-04-20T06:13:00.558Z,5.60
2019-04-20T06:15:54.181Z,5.80
2019-04-20T06:18:42.513Z,4.67
2019-04-20T06:21:32.544Z,4.78
2019-04-20T06:23:59.329Z,5.35
2019-04-20T06:28:50.837Z,5.40
2019-04-20T06:31:35.528Z,5.35
2019-04-20T06:34:33.399Z,5.65
2019-04-20T06:37:08.483Z,6.42
2019-04-20T06:42:11.153Z,5.55
2019-04-20T06:44:35.418Z,5.83
2019-04-20T06:49:38.105Z,6.37
2019-04-20T06:52:23.687Z,6.05
2019-04-20T06:57:18.407Z,5.72
2019-04-20T06:59:52.315Z,5.72
2019-04-20T07:02:32.447Z,5.37
2019-04-20T07:04:58.003Z,6.08
2019-04-20T07:07:24.059Z,6.00
2019-04-20T07:12:31.357Z,6.35
2019-04-20T07:14:50.988Z,7.55
2019-04-20T07:20:04.311Z,8.58
2019-04-20T07:25:18.734Z,6.15
2019-04-20T07:27:49.096Z,7.10
2019-04-20T07:30:17.533Z,7.47
2019-04-20T07:33:08.719Z,7.12
2019-04-20T07:35:25.652Z,8.43
2019-04-20T07:38:15.484Z,9.13
2019-04-20T07:40:35.479Z,9.25
2019-04-20T07:43:04.633Z,9.28
2019-04-20T07:45:45.521Z,9.03
2019-04-20T07:50:37.583Z,10.10
2019-04-20T07:53:12.297Z,10.10
2019-04-20T07:58:11.125Z,10.38
2019-04-20T08:01:05.698Z,9.80
2019-04-20T08:05:53.418Z,8.95
2019-04-20T08:10:59.595Z,8.38
2019-04-20T08:13:39.109Z,8.98
2019-04-20T08:16:06.692Z,9.50
2019-04-20T08:18:41.254Z,9.28
2019-04-20T08:21:08.219Z,9.18
2019-04-20T08:23:47.340Z,7.00
2019-04-20T08:26:01.725Z,6.53
2019-04-20T08:28:38.465Z,6.75
2019-04-20T08:31:17.801Z,6.65
2019-04-20T08:34:07.426Z,7.28
2019-04-20T08:41:28.614Z,6.45
2019-04-20T08:44:09.620Z,7.78
2019-04-20T08:46:41.738Z,7.35
2019-04-20T08:49:08.375Z,8.08
2019-04-20T08:51:41.943Z,7.62
2019-04-20T08:54:08.619Z,7.87
2019-04-20T08:56:31.872Z,7.42
2019-04-20T08:58:52.894Z,7.05
2019-04-20T09:01:28.229Z,7.10
2019-04-20T09:04:02.104Z,6.72
2019-04-20T09:06:40.016Z,7.03
2019-04-20T09:09:22.496Z,7.92
2019-04-20T09:11:49.644Z,9.10
2019-04-20T09:14:21.416Z,8.68
2019-04-20T09:16:59.807Z,7.65
2019-04-20T09:19:36.697Z,8.63
2019-04-20T09:25:24.971Z,7.30
2019-04-20T09:27:29.512Z,7.80
2019-04-20T09:30:09.189Z,8.28
2019-04-20T09:32:50.457Z,8.08
2019-04-20T09:35:34.108Z,7.45
2019-04-20T09:38:01.706Z,7.87
2019-04-20T09:40:35.267Z,8.28
2019-04-20T09:42:56.653Z,8.15
2019-04-20T09:45:37.077Z,8.05
2019-04-20T09:50:49.912Z,8.00
2019-04-20T09:53:21.266Z,7.87
2019-04-20T09:55:53.444Z,7.67
2019-04-20T09:58:18.989Z,7.72
2019-04-20T10:00:59.501Z,7.47
2019-04-20T10:03:14.540Z,7.97
2019-04-20T10:05:45.402Z,8.28
2019-04-20T10:08:15.606Z,8.38
2019-04-20T10:10:47.235Z,7.72
2019-04-20T10:13:17.479Z,7.95
2019-04-20T10:15:47.815Z,7.10
2019-04-20T10:18:19.770Z,6.22
2019-04-20T10:20:49.897Z,5.90
2019-04-20T10:23:20.749Z,6.95
2019-04-20T10:25:50.964Z,7.10
2019-04-20T10:28:21.514Z,6.65
2019-04-20T10:30:52.711Z,6.87
2019-04-20T10:33:25.699Z,6.62
2019-04-20T10:35:57.423Z,6.22
2019-04-20T10:38:33.950Z,7.33
2019-04-20T10:41:12.668Z,6.35
2019-04-20T10:43:35.064Z,6.17
2019-04-20T10:46:06.805Z,4.40
2019-04-20T10:48:41.744Z,5.60
2019-04-20T10:51:08.679Z,5.40
2019-04-20T10:53:38.699Z,6.30
2019-04-20T10:56:09.632Z,4.95
2019-04-20T10:58:40.077Z,3.87
2019-04-20T11:01:11.593Z,3.77
2019-04-20T11:03:42.741Z,4.22
2019-04-20T11:06:14.398Z,4.30
2019-04-20T11:08:44.640Z,4.40
2019-04-20T11:11:23.149Z,4.53
2019-04-20T11:13:47.585Z,4.40
2019-04-20T11:16:18.130Z,4.62
2019-04-20T11:18:49.336Z,3.90
2019-04-20T11:21:19.609Z,4.22
2019-04-20T11:23:50.021Z,5.00
2019-04-20T11:26:20.309Z,4.90
2019-04-20T11:28:50.403Z,5.12
2019-04-20T11:31:21.888Z,4.97
2019-04-20T11:33:52.312Z,5.08
2019-04-20T11:36:23.251Z,4.40
2019-04-20T11:38:54.446Z,4.05
2019-04-20T11:41:27.696Z,4.45
2019-04-20T11:43:57.606Z,4.25
2019-04-20T11:46:27.846Z,3.37
2019-04-20T11:48:57.857Z,2.92
2019-04-20T11:51:27.835Z,3.25
2019-04-20T11:53:58.546Z,2.87
2019-04-20T11:56:33.385Z,3.05
2019-04-20T11:59:00.953Z,3.17
2019-04-20T12:01:58.460Z,2.50
2019-04-20T12:04:38.148Z,2.65
2019-04-20T12:07:00.995Z,3.05
2019-04-20T12:09:31.668Z,3.25
2019-04-20T12:12:12.248Z,2.77
2019-04-20T12:14:34.558Z,2.30
2019-04-20T12:17:05.777Z,2.87
2019-04-20T12:19:36.261Z,2.80
2019-04-20T12:22:07.812Z,2.65
2019-04-20T12:24:38.194Z,2.62
2019-04-20T12:27:08.863Z,2.98
2019-04-20T12:29:40.556Z,2.90
2019-04-20T12:32:10.779Z,2.52
2019-04-20T12:34:41.256Z,2.85
2019-04-20T12:37:13.323Z,3.05
2019-04-20T12:39:44.881Z,2.98
2019-04-20T12:42:17.021Z,2.83
2019-04-20T12:44:48.000Z,2.60
2019-04-20T12:47:19.538Z,2.65
2019-04-20T12:49:49.746Z,2.50
2019-04-20T12:52:20.711Z,3.08
2019-04-20T12:54:50.868Z,2.80
2019-04-20T12:57:20.901Z,2.83
2019-04-20T12:59:52.337Z,3.02
2019-04-20T13:02:23.152Z,2.80
2019-04-20T13:04:53.474Z,2.70
2019-04-20T13:07:24.800Z,3.02
2019-04-20T13:09:54.884Z,2.60
2019-04-20T13:12:44.558Z,2.98
2019-04-20T13:15:38.209Z,2.83
2019-04-20T13:20:39.738Z,2.98
2019-04-20T13:23:10.982Z,3.10
2019-04-20T13:25:41.273Z,2.80
2019-04-20T13:28:12.736Z,2.58
2019-04-20T13:30:43.895Z,3.10
2019-04-20T13:33:14.198Z,3.60
2019-04-20T13:35:44.450Z,3.10
2019-04-20T13:38:14.518Z,3.02
2019-04-20T13:40:45.864Z,3.08
2019-04-20T13:43:17.507Z,2.75
2019-04-20T13:45:48.879Z,3.20
2019-04-20T13:48:19.308Z,3.33
2019-04-20T13:50:49.725Z,3.15
2019-04-20T13:53:19.985Z,3.12
2019-04-20T13:55:51.951Z,3.80
2019-04-20T13:58:39.931Z,3.17
2019-04-20T14:01:14.829Z,3.55
2019-04-20T14:03:44.981Z,3.20
2019-04-20T14:06:16.348Z,2.92
2019-04-20T14:08:47.363Z,3.00
2019-04-20T14:11:17.770Z,3.05
2019-04-20T14:13:54.610Z,2.77
2019-04-20T14:16:19.493Z,2.87
2019-04-20T14:18:51.112Z,3.42
2019-04-20T14:21:21.221Z,4.00
2019-04-20T14:23:53.029Z,3.10
2019-04-20T14:26:23.125Z,3.70
2019-04-20T14:28:54.841Z,3.55
2019-04-20T14:31:25.876Z,3.33
2019-04-20T14:33:57.217Z,3.22
2019-04-20T14:36:28.708Z,3.05
2019-04-20T14:39:00.328Z,3.60
2019-04-20T14:41:32.085Z,3.40
2019-04-20T14:44:03.614Z,2.95
2019-04-20T14:46:33.828Z,3.20
2019-04-20T14:49:04.930Z,2.98
2019-04-20T14:51:37.389Z,3.60
2019-04-20T14:54:07.561Z,3.05
2019-04-20T14:56:37.768Z,3.00
2019-04-20T14:59:09.670Z,2.90
2019-04-20T15:01:42.686Z,2.72
2019-04-20T15:04:17.776Z,2.65
2019-04-20T15:06:44.537Z,2.87
2019-04-20T15:09:14.845Z,3.70
2019-04-20T15:11:46.482Z,2.85
2019-04-20T15:14:16.821Z,2.87
2019-04-20T15:16:46.832Z,2.72
2019-04-20T15:19:18.509Z,2.98
2019-04-20T15:21:53.525Z,2.98
2019-04-20T15:24:23.829Z,2.70
2019-04-20T15:26:54.242Z,2.70
2019-04-20T15:29:24.369Z,2.83
2019-04-20T15:31:56.503Z,2.67
2019-04-20T15:34:26.813Z,2.95
2019-04-20T15:36:57.973Z,3.12
2019-04-20T15:39:29.203Z,2.70
2019-04-20T15:42:01.180Z,2.60
2019-04-20T15:44:33.430Z,3.05
2019-04-20T15:47:03.749Z,2.40
2019-04-20T15:49:35.872Z,2.33
2019-04-20T15:52:06.070Z,2.67
2019-04-20T15:54:36.121Z,3.05
2019-04-20T15:57:12.740Z,2.75
2019-04-20T15:59:38.236Z,2.83
2019-04-20T16:02:29.370Z,2.42
2019-04-20T16:05:18.598Z,2.67
2019-04-20T16:07:55.077Z,2.70
2019-04-20T16:10:21.275Z,2.40
2019-04-20T16:13:04.848Z,2.33
2019-04-20T16:15:25.425Z,2.33
2019-04-20T16:17:56.824Z,2.30
2019-04-20T16:20:28.855Z,2.52
2019-04-20T16:22:58.754Z,2.30
2019-04-20T16:25:45.780Z,2.45
2019-04-20T16:28:17.266Z,2.30
2019-04-20T16:30:47.571Z,2.30
2019-04-20T16:33:18.613Z,1.90
2019-04-20T16:35:49.933Z,2.10
2019-04-20T16:38:20.486Z,2.10
2019-04-20T16:40:52.528Z,2.30
2019-04-20T16:43:29.377Z,2.35
2019-04-20T16:45:55.051Z,2.15
2019-04-20T16:48:26.364Z,1.92
2019-04-20T16:50:58.577Z,2.17
2019-04-20T16:53:28.826Z,1.95
2019-04-20T16:56:01.157Z,2.02
2019-04-20T16:58:33.478Z,3.12
2019-04-20T17:01:05.517Z,2.58
2019-04-20T17:03:44.397Z,2.17
2019-04-20T17:06:08.346Z,2.30
2019-04-20T17:08:41.073Z,4.10
2019-04-20T17:11:11.682Z,4.12
2019-04-20T17:13:48.042Z,3.45
2019-04-20T17:16:13.589Z,4.12
2019-04-20T17:18:47.646Z,2.42
2019-04-20T17:21:23.174Z,2.92
2019-04-20T17:23:51.207Z,2.27
2019-04-20T17:26:23.167Z,2.30
2019-04-20T17:28:55.467Z,2.83
2019-04-20T17:31:27.299Z,2.85
2019-04-20T17:34:10.612Z,3.10
2019-04-20T17:36:33.649Z,3.67
2019-04-20T17:39:07.830Z,3.50
2019-04-20T17:41:54.576Z,2.40
2019-04-20T17:44:24.688Z,2.45
2019-04-20T17:46:47.624Z,2.70
2019-04-20T17:49:26.950Z,2.90
2019-04-20T17:52:05.109Z,2.98
2019-04-20T17:54:19.838Z,3.33
2019-04-20T17:56:50.187Z,3.17
2019-04-20T17:59:20.290Z,3.58
2019-04-20T18:02:20.419Z,3.75
2019-04-20T18:05:08.208Z,3.80
2019-04-20T18:10:06.761Z,4.22
2019-04-20T18:12:27.027Z,3.87
2019-04-20T18:15:10.128Z,3.15
2019-04-20T18:17:50.321Z,3.60
2019-04-20T18:20:07.660Z,3.30
2019-04-20T18:22:44.050Z,3.12
2019-04-20T18:25:32.499Z,3.50
2019-04-20T18:27:59.619Z,3.27
2019-04-20T18:30:29.830Z,3.37
2019-04-20T18:32:49.305Z,3.80
2019-04-20T18:35:22.402Z,3.98
2019-04-20T18:37:59.384Z,3.80
2019-04-20T18:40:32.567Z,4.65
2019-04-20T18:43:04.631Z,3.87
2019-04-20T18:45:41.073Z,3.75
2019-04-20T18:48:17.282Z,3.58
2019-04-20T18:50:37.980Z,4.05
2019-04-20T18:53:03.446Z,4.20
2019-04-20T18:55:46.283Z,3.95
2019-04-20T18:58:07.026Z,3.90
2019-04-20T19:00:42.796Z,4.05
2019-04-20T19:03:18.164Z,4.22
2019-04-20T19:05:42.033Z,3.55
2019-04-20T19:08:15.336Z,3.98
2019-04-20T19:10:54.142Z,5.72
2019-04-20T19:13:28.687Z,6.12
2019-04-20T19:18:59.497Z,9.38
2019-04-20T19:21:17.263Z,11.65
2019-04-20T19:23:56.217Z,10.85
2019-04-20T19:26:21.528Z,9.60
2019-04-20T19:28:55.865Z,5.28
2019-04-20T19:31:39.258Z,4.67
2019-04-20T19:34:11.557Z,4.92
2019-04-20T19:36:34.890Z,4.42
2019-04-20T19:39:15.242Z,4.25
2019-04-20T19:44:13.492Z,4.00
2019-04-20T19:46:53.768Z,3.95
2019-04-20T19:49:19.765Z,4.42
2019-04-20T19:52:04.215Z,3.85
2019-04-20T19:54:33.101Z,3.75
2019-04-20T19:57:00.476Z,4.70
2019-04-20T19:59:25.124Z,5.55
2019-04-20T20:01:49.733Z,4.25
2019-04-20T20:04:19.867Z,4.45
2019-04-20T20:06:56.523Z,5.37
2019-04-20T20:09:21.898Z,6.78
2019-04-20T20:11:56.158Z,6.33
2019-04-20T20:14:31.996Z,5.53
2019-04-20T20:17:08.871Z,5.72
2019-04-20T20:19:45.942Z,6.22
2019-04-20T20:22:11.691Z,6.17
2019-04-20T20:24:31.369Z,6.03
2019-04-20T20:27:06.251Z,6.17
2019-04-20T20:29:38.456Z,6.03
2019-04-20T20:32:19.143Z,6.00
2019-04-20T20:34:42.225Z,6.50
2019-04-20T20:37:12.991Z,6.58
2019-04-20T20:39:51.261Z,6.67
2019-04-20T20:42:26.070Z,5.80
2019-04-20T20:44:52.426Z,6.45
2019-04-20T20:47:41.169Z,6.90
2019-04-20T20:50:17.377Z,6.47
2019-04-20T20:52:37.878Z,6.65
2019-04-20T20:55:00.662Z,6.75
2019-04-20T20:57:31.166Z,7.22
2019-04-20T21:00:03.666Z,7.05
2019-04-20T21:02:43.518Z,8.33
2019-04-20T21:05:01.849Z,8.13
2019-04-20T21:07:32.254Z,8.05
2019-04-20T21:10:02.343Z,8.45
2019-04-20T21:12:36.440Z,7.08
2019-04-20T21:15:15.120Z,6.75
2019-04-20T21:18:05.499Z,5.47
2019-04-20T21:20:33.216Z,4.62
2019-04-20T21:22:58.372Z,3.55
2019-04-20T21:25:21.139Z,4.30
2019-04-20T21:27:51.345Z,4.80
2019-04-20T21:30:31.030Z,4.65
2019-04-20T21:32:57.325Z,3.98
2019-04-20T21:35:25.936Z,4.70
2019-04-20T21:38:02.467Z,3.95
2019-04-20T21:40:35.317Z,3.85
2019-04-20T21:43:05.056Z,4.53
2019-04-20T21:45:35.732Z,4.40
2019-04-20T21:48:11.485Z,4.30
2019-04-20T21:50:54.589Z,4.28
2019-04-20T21:53:15.479Z,4.37
2019-04-20T21:55:37.797Z,4.33
2019-04-20T21:58:09.108Z,4.60
2019-04-20T22:01:07.010Z,4.65
2019-04-20T22:03:26.817Z,4.53
2019-04-20T22:06:04.780Z,5.33
2019-04-20T22:08:39.449Z,4.95
2019-04-20T22:11:08.033Z,4.97
2019-04-20T22:13:42.103Z,4.50
2019-04-20T22:16:12.551Z,5.00
2019-04-20T22:18:59.291Z,4.80
2019-04-20T22:21:24.855Z,5.40
2019-04-20T22:24:00.565Z,5.33
2019-04-20T22:26:30.035Z,5.10
2019-04-20T22:28:50.005Z,5.15
2019-04-20T22:31:20.391Z,4.58
2019-04-20T22:33:50.664Z,4.80
2019-04-20T22:36:24.833Z,5.80
2019-04-20T22:39:13.241Z,4.95
2019-04-20T22:41:54.689Z,4.75
2019-04-20T22:44:20.932Z,4.87
2019-04-20T22:46:50.082Z,4.65
2019-04-20T22:49:36.326Z,5.30
2019-04-20T22:52:00.697Z,4.47
2019-04-20T22:54:39.706Z,4.17
2019-04-20T22:57:05.951Z,4.05
2019-04-20T22:59:38.386Z,4.92
2019-04-20T23:02:01.193Z,4.12
2019-04-20T23:04:30.889Z,3.90
2019-04-20T23:07:01.213Z,3.98
2019-04-20T23:09:32.823Z,4.33
2019-04-20T23:12:09.198Z,4.42
2019-04-20T23:14:34.547Z,3.33
2019-04-20T23:17:06.222Z,4.25
2019-04-20T23:19:45.709Z,3.52
2019-04-20T23:22:11.689Z,4.12
2019-04-20T23:24:39.842Z,3.70
2019-04-20T23:27:16.616Z,3.92
2019-04-20T23:29:42.158Z,3.55
2019-04-20T23:32:14.549Z,3.98
2019-04-20T23:34:44.850Z,3.77
2019-04-20T23:37:23.407Z,4.42
2019-04-20T23:39:52.594Z,3.83
2019-04-20T23:42:33.614Z,3.77
2019-04-20T23:45:05.593Z,3.87
2019-04-20T23:47:47.897Z,4.53
2019-04-20T23:50:34.218Z,4.35
2019-04-20T23:53:05.502Z,4.30
2019-04-20T23:55:19.082Z,4.35
2019-04-20T23:57:55.909Z,4.10
